Time;durP1;ratioP1;P1;durP2;ratioP2;P2;SDS_P1;SDS_P2;PMS_P1;PMS_P2;Temp;Humidity;BMP_temperature;BMP_pressure;BME280_temperature;BME280_humidity;BME280_pressure;Samples;Min_cycle;Max_cycle;Signal;HPM_P1;HPM_P2
2022/12/31 00:02:04;;;;;;;13.00;2.67;;;11.00;94.60;;;;;;5093096;27;20893;-90
2022/12/31 00:04:30;;;;;;;12.68;2.05;;;11.10;94.40;;;;;;5091922;27;20900;-88
2022/12/31 00:06:56;;;;;;;15.47;2.33;;;11.00;94.40;;;;;;5093266;27;20402;-89
2022/12/31 00:09:21;;;;;;;13.77;2.07;;;11.10;94.40;;;;;;5091319;27;20410;-88
2022/12/31 00:11:47;;;;;;;15.23;2.08;;;11.10;94.40;;;;;;5092859;27;20407;-89
2022/12/31 00:14:13;;;;;;;15.10;2.42;;;11.40;94.40;;;;;;5093028;27;20827;-90
2022/12/31 00:16:40;;;;;;;14.97;2.50;;;11.40;94.40;;;;;;5093705;27;20974;-90
2022/12/31 00:19:12;;;;;;;14.15;1.92;;;11.30;94.30;;;;;;5110393;27;20398;-89
2022/12/31 00:21:38;;;;;;;13.90;2.15;;;11.20;94.20;;;;;;5091279;27;20434;-89
2022/12/31 00:24:05;;;;;;;13.53;2.20;;;11.20;94.20;;;;;;5110087;27;20464;-88
2022/12/31 00:26:33;;;;;;;15.00;2.40;;;11.10;94.20;;;;;;5092447;27;20497;-89
2022/12/31 00:28:59;;;;;;;14.43;2.72;;;11.10;94.20;;;;;;5093928;27;20905;-89
2022/12/31 00:31:35;;;;;;;15.05;2.50;;;11.10;94.20;;;;;;5092623;27;20411;-89
2022/12/31 00:34:01;;;;;;;16.45;2.97;;;11.20;94.30;;;;;;5109876;27;20784;-89
2022/12/31 00:36:31;;;;;;;19.65;2.75;;;11.20;94.40;;;;;;5110386;27;20726;-90
2022/12/31 00:38:58;;;;;;;13.90;2.45;;;11.20;94.40;;;;;;5109351;27;20407;-89
2022/12/31 00:41:25;;;;;;;18.38;3.05;;;11.50;94.50;;;;;;5110689;27;20759;-87
2022/12/31 00:43:51;;;;;;;20.20;3.97;;;11.20;94.50;;;;;;5108791;27;20403;-90
2022/12/31 00:46:17;;;;;;;17.67;3.33;;;11.20;94.60;;;;;;5110509;27;20395;-90
2022/12/31 00:48:43;;;;;;;22.83;3.60;;;11.20;94.60;;;;;;5109539;27;20403;-89
2022/12/31 00:51:11;;;;;;;22.90;4.03;;;11.30;94.60;;;;;;5092576;27;20402;-90
2022/12/31 00:53:37;;;;;;;22.25;3.50;;;11.30;94.70;;;;;;5092978;27;20406;-90
2022/12/31 00:56:15;;;;;;;23.88;3.42;;;11.30;94.70;;;;;;5109155;27;20406;-90
2022/12/31 00:58:41;;;;;;;19.70;3.92;;;11.30;94.70;;;;;;5110273;27;20410;-89
2022/12/31 01:01:08;;;;;;;21.70;3.53;;;11.30;94.70;;;;;;5108179;27;20959;-90
2022/12/31 01:03:33;;;;;;;22.83;3.72;;;11.30;94.70;;;;;;5109766;27;20482;-89
2022/12/31 01:06:00;;;;;;;25.80;4.20;;;11.40;94.70;;;;;;5108731;27;20497;-90
2022/12/31 01:08:25;;;;;;;22.58;3.67;;;11.40;94.70;;;;;;5109416;27;20405;-88
2022/12/31 01:13:35;;;;;;;25.10;4.40;;;11.40;94.60;;;;;;5108383;27;20402;-89
2022/12/31 01:16:12;;;;;;;21.10;4.00;;;11.50;94.50;;;;;;5109802;27;20414;-90
2022/12/31 01:18:38;;;;;;;24.88;4.88;;;11.50;94.40;;;;;;5091382;27;20485;-89
2022/12/31 01:21:06;;;;;;;22.85;4.03;;;11.50;94.40;;;;;;5092020;27;20418;-89
2022/12/31 01:23:32;;;;;;;21.98;4.00;;;11.50;94.60;;;;;;5091980;27;20407;-90
2022/12/31 01:26:03;;;;;;;20.08;4.25;;;11.50;94.30;;;;;;5109049;27;20897;-90
2022/12/31 01:28:30;;;;;;;21.27;4.50;;;11.50;94.30;;;;;;5109354;27;21300;-89
2022/12/31 01:30:55;;;;;;;17.55;3.70;;;11.50;94.20;;;;;;5091368;27;20485;-90
2022/12/31 01:33:21;;;;;;;21.08;3.85;;;11.50;94.20;;;;;;5091993;27;20532;-89
2022/12/31 01:35:47;;;;;;;17.67;4.05;;;11.50;94.40;;;;;;5091195;27;20407;-89
2022/12/31 01:38:13;;;;;;;15.50;3.30;;;11.40;94.10;;;;;;5109024;27;20387;-89
2022/12/31 01:40:39;;;;;;;19.43;4.43;;;11.40;94.10;;;;;;5091383;27;20434;-89
2022/12/31 01:43:16;;;;;;;17.85;3.50;;;11.40;94.10;;;;;;5092332;27;20403;-88
2022/12/31 01:45:45;;;;;;;17.95;3.25;;;11.40;94.20;;;;;;5109210;27;20526;-87
2022/12/31 01:48:13;;;;;;;17.45;3.40;;;11.30;94.10;;;;;;5107291;27;20411;-90
2022/12/31 01:50:39;;;;;;;16.27;3.33;;;11.30;94.20;;;;;;5109250;27;20434;-90
2022/12/31 01:53:07;;;;;;;17.02;3.15;;;11.30;94.20;;;;;;5107786;27;20399;-89
2022/12/31 01:55:38;;;;;;;16.23;3.60;;;11.30;94.10;;;;;;5109021;27;20972;-90
2022/12/31 01:58:10;;;;;;;17.05;3.80;;;11.20;94.10;;;;;;5091361;27;20399;-88
2022/12/31 02:00:36;;;;;;;17.40;2.92;;;11.30;94.20;;;;;;5107670;27;20494;-89
2022/12/31 02:03:04;;;;;;;16.10;3.23;;;11.30;94.10;;;;;;5108081;27;20415;-88
2022/12/31 02:05:40;;;;;;;13.82;2.83;;;11.30;94.30;;;;;;5090240;27;20489;-89
2022/12/31 02:08:06;;;;;;;18.65;3.70;;;11.30;94.20;;;;;;5108664;27;20414;-89
2022/12/31 02:10:32;;;;;;;13.30;2.65;;;11.30;94.30;;;;;;5090157;27;20473;-90
2022/12/31 02:12:58;;;;;;;15.67;3.37;;;11.30;94.20;;;;;;5091531;27;20524;-89
2022/12/31 02:16:02;;;;;;;11.47;3.03;;;11.30;94.30;;;;;;5090830;27;20488;-89
2022/12/31 02:19:05;;;;;;;12.00;3.40;;;11.30;94.20;;;;;;5090103;27;20409;-89
2022/12/31 02:21:34;;;;;;;14.88;4.03;;;11.30;94.30;;;;;;5091283;27;20530;-89
2022/12/31 02:24:24;;;;;;;14.07;3.88;;;11.30;94.60;;;;;;5090027;27;20402;-88
2022/12/31 02:26:54;;;;;;;11.77;4.05;;;11.30;94.40;;;;;;5089889;27;20417;-88
2022/12/31 02:30:07;;;;;;;12.45;4.30;;;11.30;94.40;;;;;;5107883;27;21218;-89
2022/12/31 02:33:08;;;;;;;15.20;4.28;;;11.30;94.40;;;;;;5075968;27;20460;-88
2022/12/31 02:35:55;;;;;;;12.00;3.60;;;11.30;94.40;;;;;;5102285;27;20568;-88
2022/12/31 02:38:31;;;;;;;13.27;3.70;;;11.30;94.40;;;;;;5090969;27;20407;-89
2022/12/31 02:40:58;;;;;;;14.52;3.70;;;11.30;94.40;;;;;;5089511;27;21082;-89
2022/12/31 02:43:24;;;;;;;12.83;3.07;;;11.30;94.40;;;;;;5090880;27;20399;-89
2022/12/31 02:46:06;;;;;;;14.30;3.80;;;11.30;94.40;;;;;;5089935;27;20402;-89
2022/12/31 02:48:56;;;;;;;13.68;3.28;;;11.30;94.40;;;;;;5106422;27;20477;-88
2022/12/31 02:51:45;;;;;;;11.35;2.75;;;11.30;94.30;;;;;;5091301;28;20441;-89
2022/12/31 02:54:23;;;;;;;9.77;2.30;;;11.30;94.60;;;;;;5089586;28;20916;-90
2022/12/31 02:57:16;;;;;;;13.32;2.90;;;11.30;94.30;;;;;;5089989;27;20407;-89
2022/12/31 03:02:46;;;;;;;11.25;2.10;;;11.20;94.30;;;;;;5106078;28;20406;-88
2022/12/31 03:05:14;;;;;;;10.48;2.00;;;11.30;94.30;;;;;;5090075;28;20405;-90
2022/12/31 03:07:41;;;;;;;10.23;2.20;;;11.20;94.30;;;;;;5089855;28;20799;-89
2022/12/31 03:10:08;;;;;;;11.77;2.33;;;11.20;94.30;;;;;;5089356;28;20456;-89
2022/12/31 03:12:47;;;;;;;10.40;2.20;;;11.10;94.40;;;;;;5108106;28;20810;-89
2022/12/31 03:15:22;;;;;;;9.95;2.00;;;11.10;94.30;;;;;;5089524;28;20399;-88
2022/12/31 03:17:59;;;;;;;9.63;1.93;;;11.10;94.30;;;;;;5090635;28;20899;-90
2022/12/31 03:23:31;;;;;;;10.48;1.60;;;11.10;94.30;;;;;;5106513;28;20410;-89
2022/12/31 03:25:58;;;;;;;8.88;1.70;;;11.10;94.30;;;;;;5091265;28;20402;-89
2022/12/31 03:28:27;;;;;;;7.38;1.50;;;11.00;94.30;;;;;;5106196;28;20478;-89
2022/12/31 03:30:58;;;;;;;12.32;1.67;;;11.00;94.30;;;;;;5107500;28;20406;-89
2022/12/31 03:33:24;;;;;;;7.50;1.17;;;11.10;94.30;;;;;;5106215;28;20422;-89
2022/12/31 03:35:51;;;;;;;8.77;1.23;;;11.00;94.30;;;;;;5089570;28;20410;-90
2022/12/31 03:38:17;;;;;;;8.38;1.15;;;11.00;94.30;;;;;;5090834;28;20484;-89
2022/12/31 03:40:49;;;;;;;9.32;1.27;;;10.90;94.20;;;;;;5088897;28;20491;-90
2022/12/31 03:43:15;;;;;;;8.50;0.98;;;11.00;94.20;;;;;;5090534;28;20405;-90
2022/12/31 03:45:41;;;;;;;6.35;0.68;;;11.00;94.10;;;;;;5088571;28;20410;-90
2022/12/31 03:48:08;;;;;;;7.53;0.90;;;11.20;94.10;;;;;;5107573;28;20402;-89
2022/12/31 03:50:34;;;;;;;7.83;1.20;;;11.00;94.00;;;;;;5090236;28;20500;-91
2022/12/31 03:53:00;;;;;;;7.78;1.20;;;11.20;94.00;;;;;;5089693;28;20418;-89
2022/12/31 03:55:26;;;;;;;9.25;0.90;;;11.00;94.00;;;;;;5090012;27;20449;-89
2022/12/31 03:57:52;;;;;;;7.73;0.80;;;11.00;94.00;;;;;;5092977;27;20430;-88
2022/12/31 04:00:20;;;;;;;9.73;0.90;;;10.90;93.80;;;;;;5094009;27;20540;-88
2022/12/31 04:02:47;;;;;;;7.95;0.90;;;11.10;93.90;;;;;;5110063;27;20488;-89
2022/12/31 04:05:14;;;;;;;9.05;1.10;;;10.90;93.90;;;;;;5094154;27;20406;-90
2022/12/31 04:07:40;;;;;;;6.93;0.93;;;10.90;94.00;;;;;;5109902;27;20414;-89
2022/12/31 04:10:08;;;;;;;9.07;1.02;;;10.90;94.00;;;;;;5093824;27;20786;-89
2022/12/31 04:12:34;;;;;;;6.40;0.60;;;10.90;94.10;;;;;;5093141;27;20968;-89
2022/12/31 04:15:00;;;;;;;6.77;0.70;;;10.90;94.20;;;;;;5093328;27;20497;-90
2022/12/31 04:17:26;;;;;;;7.83;0.73;;;10.90;94.30;;;;;;5110924;27;20958;-88
2022/12/31 04:19:51;;;;;;;7.45;1.02;;;10.90;94.30;;;;;;5109106;27;20413;-87
2022/12/31 04:22:18;;;;;;;6.85;0.80;;;11.10;94.30;;;;;;5110457;27;20422;-89
2022/12/31 04:24:43;;;;;;;7.53;0.70;;;11.10;94.30;;;;;;5109742;27;20403;-88
2022/12/31 04:27:11;;;;;;;6.65;0.80;;;11.00;94.40;;;;;;5093354;27;20894;-87
2022/12/31 04:29:37;;;;;;;6.65;0.85;;;10.90;94.40;;;;;;5092758;27;20399;-88
2022/12/31 04:32:04;;;;;;;8.52;0.85;;;11.00;94.50;;;;;;5109554;27;20777;-88
2022/12/31 04:34:30;;;;;;;7.50;1.23;;;10.90;94.60;;;;;;5110441;27;20403;-89
2022/12/31 04:36:56;;;;;;;7.25;0.75;;;10.90;94.60;;;;;;5109555;27;20414;-88
2022/12/31 04:39:22;;;;;;;8.63;1.33;;;11.10;94.80;;;;;;5110789;27;20410;-89
2022/12/31 04:41:48;;;;;;;11.43;1.25;;;10.70;94.70;;;;;;5092114;27;20507;-92
2022/12/31 04:44:14;;;;;;;9.50;1.42;;;11.10;94.90;;;;;;5094106;27;20453;-89
2022/12/31 04:46:39;;;;;;;8.43;0.98;;;10.90;94.90;;;;;;5109872;27;20503;-89
2022/12/31 04:49:05;;;;;;;7.97;0.90;;;10.90;94.90;;;;;;5093364;27;20394;-89
2022/12/31 04:51:31;;;;;;;7.82;1.00;;;11.00;95.00;;;;;;5093307;27;20395;-90
2022/12/31 04:53:57;;;;;;;6.80;0.87;;;10.90;95.00;;;;;;5109327;27;20402;-90
2022/12/31 04:56:24;;;;;;;9.18;1.13;;;10.90;95.00;;;;;;5093791;27;20438;-89
2022/12/31 04:58:49;;;;;;;9.88;1.10;;;10.90;95.00;;;;;;5108531;27;20395;-90
2022/12/31 05:01:15;;;;;;;7.97;1.13;;;10.90;95.00;;;;;;5110120;27;20418;-88
2022/12/31 05:03:41;;;;;;;10.88;1.20;;;10.90;95.30;;;;;;5109008;27;20403;-88
2022/12/31 05:06:11;;;;;;;10.48;1.40;;;11.00;95.10;;;;;;5109892;27;20430;-90
2022/12/31 05:08:37;;;;;;;10.82;1.50;;;11.00;95.20;;;;;;5091901;27;20399;-90
2022/12/31 05:11:03;;;;;;;9.30;1.47;;;11.30;95.30;;;;;;5092350;27;20403;-88
2022/12/31 05:13:29;;;;;;;9.02;1.58;;;10.90;95.20;;;;;;5092759;27;20556;-91
2022/12/31 05:15:55;;;;;;;10.20;1.88;;;11.00;95.20;;;;;;5108956;27;20395;-90
2022/12/31 05:18:20;;;;;;;10.52;2.10;;;11.00;95.20;;;;;;5093083;27;20423;-88
2022/12/31 05:20:46;;;;;;;12.27;3.00;;;10.90;95.20;;;;;;5108669;27;20995;-89
2022/12/31 05:23:13;;;;;;;8.80;2.80;;;10.90;95.40;;;;;;5093211;27;20406;-90
2022/12/31 05:25:40;;;;;;;12.00;3.17;;;11.00;95.40;;;;;;5091969;27;20482;-90
2022/12/31 05:28:06;;;;;;;11.57;3.60;;;10.90;95.40;;;;;;5092057;27;20916;-90
2022/12/31 05:30:32;;;;;;;11.48;3.60;;;10.90;95.40;;;;;;5108981;27;20398;-89
2022/12/31 05:32:58;;;;;;;9.03;3.20;;;11.00;95.40;;;;;;5108750;27;20941;-91
2022/12/31 05:35:24;;;;;;;9.53;4.00;;;11.00;95.40;;;;;;5109372;27;20970;-88
2022/12/31 05:37:49;;;;;;;10.70;4.03;;;11.00;95.40;;;;;;5091869;27;20431;-90
2022/12/31 05:40:15;;;;;;;13.20;4.32;;;11.00;95.50;;;;;;5110060;27;20499;-90
2022/12/31 05:42:41;;;;;;;11.05;4.55;;;11.00;95.50;;;;;;5091850;27;20398;-90
2022/12/31 05:45:07;;;;;;;8.27;2.80;;;11.00;95.50;;;;;;5109184;27;20394;-90
2022/12/31 05:47:33;;;;;;;9.63;3.00;;;11.00;95.40;;;;;;5091469;27;20472;-90
2022/12/31 05:49:58;;;;;;;11.30;3.05;;;11.00;95.40;;;;;;5108621;27;20402;-92
2022/12/31 05:52:24;;;;;;;11.50;3.85;;;11.00;95.30;;;;;;5109667;27;20505;-90
2022/12/31 05:54:50;;;;;;;11.82;4.10;;;10.90;95.40;;;;;;5090798;27;20489;-89
2022/12/31 05:57:15;;;;;;;11.13;4.40;;;10.90;95.50;;;;;;5091995;27;20864;-90
2022/12/31 05:59:41;;;;;;;10.70;5.35;;;10.90;95.50;;;;;;5090334;27;20408;-89
2022/12/31 06:02:07;;;;;;;11.90;5.25;;;10.90;95.60;;;;;;5091269;27;20774;-89
2022/12/31 06:04:32;;;;;;;11.27;6.10;;;10.90;95.60;;;;;;5090629;27;20399;-88
2022/12/31 06:06:58;;;;;;;15.40;7.03;;;10.80;95.70;;;;;;5091239;27;20437;-89
2022/12/31 06:09:24;;;;;;;15.07;8.03;;;10.80;95.80;;;;;;5107853;27;20399;-87
2022/12/31 06:11:50;;;;;;;13.30;7.77;;;11.00;96.40;;;;;;5107168;27;20612;-89
2022/12/31 06:14:15;;;;;;;14.88;8.55;;;10.80;96.10;;;;;;5091325;27;21175;-87
2022/12/31 06:16:41;;;;;;;15.73;7.80;;;10.80;96.20;;;;;;5107124;27;20478;-88
2022/12/31 06:19:08;;;;;;;17.23;8.85;;;10.80;96.50;;;;;;5092280;27;20395;-88
2022/12/31 06:21:34;;;;;;;18.40;9.20;;;10.50;96.20;;;;;;5115808;27;20412;-89
2022/12/31 06:23:59;;;;;;;16.77;9.23;;;10.80;96.30;;;;;;5127675;27;20488;-89
2022/12/31 06:26:26;;;;;;;18.73;9.65;;;10.80;96.30;;;;;;5125208;27;20409;-89
2022/12/31 06:28:52;;;;;;;19.73;10.17;;;10.80;96.30;;;;;;5123823;27;20452;-90
2022/12/31 06:31:18;;;;;;;16.70;10.23;;;10.80;96.40;;;;;;5111479;27;20437;-88
2022/12/31 06:33:45;;;;;;;13.63;9.27;;;10.80;96.40;;;;;;5127494;27;20405;-90
2022/12/31 06:36:13;;;;;;;13.43;9.38;;;10.90;96.50;;;;;;5111979;27;20393;-89
2022/12/31 06:38:40;;;;;;;14.55;8.10;;;10.80;96.50;;;;;;5127365;27;20393;-89
2022/12/31 06:41:09;;;;;;;13.90;7.38;;;10.80;96.40;;;;;;5111053;27;20420;-91
2022/12/31 06:43:35;;;;;;;10.13;5.40;;;10.70;96.40;;;;;;5127292;27;20457;-87
2022/12/31 06:46:02;;;;;;;8.07;3.63;;;10.70;96.30;;;;;;5126700;27;20464;-90
2022/12/31 06:48:28;;;;;;;10.98;4.55;;;10.70;96.20;;;;;;5114745;27;20432;-88
2022/12/31 06:50:54;;;;;;;11.33;4.47;;;10.70;96.30;;;;;;5117283;27;20402;-87
2022/12/31 06:53:19;;;;;;;10.80;5.60;;;10.60;96.30;;;;;;5106108;27;20399;-88
2022/12/31 06:55:47;;;;;;;14.50;7.40;;;10.60;96.30;;;;;;5105681;28;20476;-88
2022/12/31 06:58:14;;;;;;;17.00;9.88;;;10.60;96.40;;;;;;5091022;27;20481;-88
2022/12/31 07:00:52;;;;;;;14.57;10.20;;;10.60;96.50;;;;;;5089480;28;20441;-89
2022/12/31 07:03:50;;;;;;;16.67;12.10;;;10.60;96.50;;;;;;5107228;28;20406;-89
2022/12/31 07:06:42;;;;;;;20.75;13.13;;;10.50;96.80;;;;;;5107658;28;20510;-89
2022/12/31 07:09:29;;;;;;;19.75;13.93;;;10.60;96.60;;;;;;5105006;27;20822;-89
2022/12/31 07:12:00;;;;;;;13.87;10.53;;;10.50;96.70;;;;;;5111071;27;20408;-90
2022/12/31 07:14:40;;;;;;;17.85;11.82;;;10.50;96.70;;;;;;5128246;27;20413;-87
2022/12/31 07:17:21;;;;;;;15.93;10.98;;;10.60;96.70;;;;;;5120140;28;20406;-90
2022/12/31 07:19:55;;;;;;;15.73;11.97;;;10.60;96.70;;;;;;5110768;27;20411;-90
2022/12/31 07:22:21;;;;;;;19.75;12.50;;;10.60;96.60;;;;;;5089834;28;20411;-90
2022/12/31 07:24:47;;;;;;;17.17;11.43;;;10.50;96.60;;;;;;5125040;28;20426;-90
2022/12/31 07:27:18;;;;;;;18.63;12.60;;;10.50;96.60;;;;;;5107201;28;20892;-90
2022/12/31 07:30:08;;;;;;;15.98;11.35;;;10.60;96.70;;;;;;5090060;28;20415;-90
2022/12/31 07:32:47;;;;;;;17.63;11.52;;;10.50;96.60;;;;;;5112249;27;20873;-89
2022/12/31 07:35:29;;;;;;;16.17;10.30;;;10.50;96.70;;;;;;5130379;27;20408;-89
2022/12/31 07:38:06;;;;;;;16.90;10.25;;;10.50;96.80;;;;;;5094759;27;20804;-90
2022/12/31 07:40:55;;;;;;;16.33;10.60;;;10.50;96.80;;;;;;5094553;27;20430;-91
2022/12/31 07:43:43;;;;;;;16.33;10.40;;;10.50;96.80;;;;;;5110457;27;20776;-90
2022/12/31 07:46:30;;;;;;;17.00;10.93;;;10.50;96.80;;;;;;5095013;27;20502;-90
2022/12/31 07:48:57;;;;;;;14.43;9.95;;;10.50;96.80;;;;;;5095121;27;20407;-89
2022/12/31 07:51:23;;;;;;;12.43;8.52;;;10.50;96.90;;;;;;5111009;27;20500;-91
2022/12/31 07:53:49;;;;;;;14.10;11.15;;;10.50;96.90;;;;;;5094487;27;20433;-92
2022/12/31 07:56:15;;;;;;;21.88;15.02;;;10.50;96.90;;;;;;5093211;27;20905;-90
2022/12/31 07:59:04;;;;;;;19.52;13.95;;;10.80;97.00;;;;;;5111788;27;20547;-89
2022/12/31 08:01:45;;;;;;;12.95;10.73;;;10.50;96.90;;;;;;5094163;27;20912;-90
2022/12/31 08:04:31;;;;;;;12.77;10.07;;;10.50;97.00;;;;;;5094039;27;20883;-89
2022/12/31 08:07:07;;;;;;;11.13;8.35;;;10.50;97.00;;;;;;5094644;27;20406;-90
2022/12/31 08:10:11;;;;;;;11.38;9.27;;;10.60;97.00;;;;;;5093300;27;20417;-89
2022/12/31 08:12:38;;;;;;;12.02;9.23;;;10.60;97.00;;;;;;5047420;27;20451;-89
2022/12/31 08:15:16;;;;;;;11.32;10.00;;;10.60;97.00;;;;;;5111481;27;20409;-90
2022/12/31 08:17:42;;;;;;;13.87;11.27;;;10.60;97.00;;;;;;5110391;27;20464;-93
2022/12/31 08:20:13;;;;;;;14.57;12.27;;;10.70;97.10;;;;;;5094387;27;20430;-91
2022/12/31 08:22:45;;;;;;;14.18;12.15;;;10.70;97.10;;;;;;5109804;27;20901;-91
2022/12/31 08:25:19;;;;;;;13.50;11.43;;;10.70;97.10;;;;;;5111087;27;20546;-92
2022/12/31 08:28:07;;;;;;;13.30;11.35;;;10.80;97.10;;;;;;5110248;27;20410;-88
2022/12/31 08:31:16;;;;;;;12.85;11.25;;;10.80;97.10;;;;;;5092173;27;20440;-89
2022/12/31 08:34:14;;;;;;;12.77;11.30;;;10.80;97.10;;;;;;5025536;28;20415;-90
2022/12/31 08:36:58;;;;;;;15.23;13.10;;;10.90;97.50;;;;;;4972957;28;20427;-90
2022/12/31 08:39:45;;;;;;;14.68;12.18;;;10.90;97.20;;;;;;5076841;27;20415;-89
2022/12/31 08:42:24;;;;;;;11.63;10.43;;;10.90;97.20;;;;;;5093081;28;20808;-89
2022/12/31 08:44:58;;;;;;;12.05;10.30;;;11.00;97.30;;;;;;5093142;27;20564;-89
2022/12/31 08:47:42;;;;;;;13.50;11.02;;;11.30;97.50;;;;;;5110381;27;20407;-88
2022/12/31 08:50:14;;;;;;;11.73;10.48;;;11.10;97.40;;;;;;5093317;27;20417;-89
2022/12/31 08:52:40;;;;;;;9.95;8.95;;;11.20;97.40;;;;;;5092714;27;20468;-90
2022/12/31 08:55:06;;;;;;;10.57;9.50;;;11.30;97.50;;;;;;5093108;27;20445;-89
2022/12/31 08:57:43;;;;;;;10.98;9.80;;;11.40;97.50;;;;;;5108615;27;20980;-92
2022/12/31 09:00:15;;;;;;;12.50;10.48;;;11.50;97.50;;;;;;5109475;27;20434;-88
2022/12/31 09:03:02;;;;;;;12.87;9.50;;;11.50;97.50;;;;;;5110083;27;20398;-89
2022/12/31 09:05:42;;;;;;;9.95;8.52;;;11.70;97.50;;;;;;5091587;27;20410;-89
2022/12/31 09:08:36;;;;;;;10.75;8.77;;;11.80;97.40;;;;;;5110785;27;20407;-87
2022/12/31 09:11:23;;;;;;;9.13;7.57;;;11.80;97.30;;;;;;5092440;27;20409;-87
2022/12/31 09:14:16;;;;;;;8.20;6.22;;;11.90;97.20;;;;;;5108959;27;20483;-91
2022/12/31 09:16:47;;;;;;;7.65;5.22;;;12.00;97.20;;;;;;5094187;27;20495;-91
2022/12/31 09:19:13;;;;;;;7.20;4.75;;;12.00;97.00;;;;;;5109239;27;20411;-88
2022/12/31 09:21:43;;;;;;;6.85;4.28;;;12.20;97.00;;;;;;5109824;27;20759;-89
2022/12/31 09:24:12;;;;;;;7.32;3.65;;;12.20;96.90;;;;;;5092827;27;20908;-88
2022/12/31 09:26:55;;;;;;;6.05;3.22;;;12.20;96.90;;;;;;5109050;27;20402;-89
2022/12/31 09:29:29;;;;;;;6.85;2.30;;;12.20;96.80;;;;;;5093137;27;20831;-91
2022/12/31 09:32:08;;;;;;;6.03;1.90;;;12.30;96.70;;;;;;5108418;27;20456;-90
2022/12/31 09:34:50;;;;;;;7.77;1.67;;;12.30;96.60;;;;;;5109585;27;20457;-88
2022/12/31 09:37:47;;;;;;;3.00;0.77;;;12.40;96.60;;;;;;5092148;27;20499;-89
2022/12/31 09:40:44;;;;;;;4.57;0.77;;;12.40;96.40;;;;;;5091758;27;20498;-91
2022/12/31 09:43:35;;;;;;;4.80;0.60;;;12.50;96.40;;;;;;5092412;27;20471;-88
2022/12/31 09:46:37;;;;;;;3.45;0.70;;;12.40;96.30;;;;;;5109463;27;21081;-90
2022/12/31 09:49:18;;;;;;;6.68;0.82;;;12.50;96.20;;;;;;5091234;27;20900;-87
2022/12/31 09:52:08;;;;;;;4.38;0.60;;;12.50;96.20;;;;;;5109115;27;20407;-89
2022/12/31 09:54:49;;;;;;;5.93;0.82;;;12.50;96.10;;;;;;5108757;27;20407;-90
2022/12/31 09:57:40;;;;;;;5.65;0.60;;;12.50;96.00;;;;;;5095908;27;20411;-89
2022/12/31 10:00:22;;;;;;;3.50;0.60;;;12.50;95.80;;;;;;5112240;27;20856;-90
2022/12/31 10:03:27;;;;;;;4.18;0.60;;;12.60;95.80;;;;;;5104294;27;20493;-90
2022/12/31 10:06:14;;;;;;;3.97;0.75;;;12.60;95.60;;;;;;5089743;27;20958;-88
2022/12/31 10:08:40;;;;;;;6.30;0.45;;;12.60;95.60;;;;;;5110501;27;20827;-89
2022/12/31 10:11:26;;;;;;;3.97;0.60;;;12.60;95.40;;;;;;5113666;27;20492;-88
2022/12/31 10:14:14;;;;;;;4.60;0.50;;;12.60;95.30;;;;;;5111496;27;20884;-90
2022/12/31 10:16:55;;;;;;;6.03;0.57;;;12.60;95.00;;;;;;5129945;27;20482;-90
2022/12/31 10:19:59;;;;;;;7.45;1.00;;;12.60;94.90;;;;;;5110844;27;20401;-91
2022/12/31 10:23:16;;;;;;;7.03;1.00;;;12.60;94.90;;;;;;5128685;27;20413;-89
2022/12/31 10:25:54;;;;;;;8.67;0.80;;;12.70;94.90;;;;;;5129555;27;20449;-88
2022/12/31 10:28:47;;;;;;;7.75;0.50;;;12.70;94.70;;;;;;5128124;27;20413;-88
2022/12/31 10:31:49;;;;;;;7.80;0.80;;;12.70;94.70;;;;;;5121395;27;20490;-87
2022/12/31 10:34:24;;;;;;;9.20;0.60;;;12.80;94.60;;;;;;5073575;27;20409;-91
2022/12/31 10:36:53;;;;;;;7.90;0.83;;;12.80;94.60;;;;;;5111173;27;20481;-90
2022/12/31 10:39:24;;;;;;;10.35;0.82;;;12.80;94.40;;;;;;5112210;27;20504;-92
2022/12/31 10:42:12;;;;;;;11.13;1.45;;;12.90;94.50;;;;;;5111020;27;20999;-90
2022/12/31 10:44:58;;;;;;;12.35;1.30;;;13.00;94.30;;;;;;5110994;27;20808;-90
2022/12/31 10:47:43;;;;;;;9.38;0.90;;;13.20;94.10;;;;;;5129496;27;20405;-91
2022/12/31 10:50:27;;;;;;;8.88;0.90;;;13.30;93.80;;;;;;5111011;27;20409;-90
2022/12/31 10:53:37;;;;;;;8.50;0.80;;;13.30;93.50;;;;;;5111032;27;20432;-91
2022/12/31 10:56:27;;;;;;;9.03;1.00;;;13.40;93.30;;;;;;5056799;27;20832;-89
2022/12/31 10:59:14;;;;;;;10.73;1.40;;;13.50;93.20;;;;;;5110547;27;20408;-89
2022/12/31 11:02:01;;;;;;;10.77;0.98;;;13.50;93.30;;;;;;5127802;27;20840;-91
2022/12/31 11:05:05;;;;;;;11.25;1.40;;;13.50;92.90;;;;;;5111280;27;20488;-89
2022/12/31 11:07:49;;;;;;;10.55;1.52;;;13.50;93.00;;;;;;5127965;27;20405;-89
2022/12/31 11:10:35;;;;;;;10.63;1.40;;;13.50;92.90;;;;;;5110594;27;20415;-89
2022/12/31 11:13:46;;;;;;;11.38;1.80;;;13.50;93.00;;;;;;5111351;27;20444;-88
2022/12/31 11:16:21;;;;;;;14.15;1.60;;;13.50;93.10;;;;;;5018268;28;20529;-89
2022/12/31 11:18:50;;;;;;;14.95;1.90;;;13.60;93.00;;;;;;5091598;28;20414;-90
2022/12/31 11:21:31;;;;;;;10.68;1.30;;;13.60;92.90;;;;;;5090341;28;20450;-90
2022/12/31 11:23:59;;;;;;;14.02;1.88;;;13.60;92.80;;;;;;5105972;28;20446;-91
2022/12/31 11:26:34;;;;;;;11.95;1.38;;;13.60;93.00;;;;;;5108480;28;20406;-89
2022/12/31 11:29:29;;;;;;;14.63;1.90;;;13.60;93.00;;;;;;5106752;28;20407;-89
2022/12/31 11:32:29;;;;;;;12.00;1.30;;;13.60;93.30;;;;;;5088935;28;20418;-89
2022/12/31 11:35:15;;;;;;;11.93;1.60;;;13.60;93.20;;;;;;5107727;28;20419;-89
2022/12/31 11:38:03;;;;;;;11.60;1.60;;;13.50;93.30;;;;;;5089724;28;20471;-91
2022/12/31 11:40:40;;;;;;;11.48;1.27;;;13.60;93.40;;;;;;5090168;28;20444;-90
2022/12/31 11:43:34;;;;;;;13.02;2.03;;;13.60;93.70;;;;;;5107886;28;20445;-90
2022/12/31 11:46:20;;;;;;;11.60;1.33;;;13.60;93.80;;;;;;5107112;28;20570;-88
2022/12/31 11:49:10;;;;;;;11.95;1.15;;;13.60;94.00;;;;;;5090465;28;20411;-91
2022/12/31 11:51:53;;;;;;;13.40;1.30;;;13.50;94.10;;;;;;5090809;28;20765;-89
2022/12/31 11:54:29;;;;;;;13.75;2.33;;;13.50;94.40;;;;;;5106547;28;20403;-90
2022/12/31 11:57:23;;;;;;;10.10;1.40;;;13.50;94.50;;;;;;5107771;28;20651;-86
2022/12/31 12:00:05;;;;;;;12.60;1.40;;;13.50;94.80;;;;;;5099001;28;20410;-88
2022/12/31 12:02:40;;;;;;;13.33;1.87;;;13.50;94.80;;;;;;5088823;28;20544;-93
2022/12/31 12:05:06;;;;;;;7.72;1.00;;;13.50;94.90;;;;;;5107846;28;20413;-95
2022/12/31 12:07:32;;;;;;;8.80;1.05;;;13.50;94.90;;;;;;5089433;28;20402;-89
2022/12/31 12:10:06;;;;;;;10.23;1.08;;;13.50;95.00;;;;;;5090282;28;20410;-89
2022/12/31 12:12:41;;;;;;;9.77;1.23;;;13.50;95.00;;;;;;5089871;28;20428;-92
2022/12/31 12:15:09;;;;;;;7.63;1.02;;;13.50;94.90;;;;;;5089705;28;20485;-90
2022/12/31 12:17:35;;;;;;;8.30;0.95;;;13.50;95.30;;;;;;5108674;27;20554;-90
2022/12/31 12:20:15;;;;;;;7.93;1.20;;;13.70;94.90;;;;;;5092484;27;20391;-88
2022/12/31 12:22:57;;;;;;;10.02;1.52;;;13.40;94.90;;;;;;5094261;27;20411;-89
2022/12/31 12:25:26;;;;;;;13.05;1.80;;;13.40;95.00;;;;;;5090305;27;20418;-87
2022/12/31 12:27:53;;;;;;;11.65;1.48;;;13.40;95.20;;;;;;5093587;27;20847;-91
2022/12/31 12:30:23;;;;;;;13.50;2.13;;;13.40;95.10;;;;;;5110500;27;20414;-92
2022/12/31 12:33:00;;;;;;;12.05;1.80;;;13.40;94.70;;;;;;5092125;27;20399;-90
2022/12/31 12:35:28;;;;;;;14.70;1.80;;;13.40;94.70;;;;;;5111013;27;20410;-89
2022/12/31 12:38:12;;;;;;;13.55;1.90;;;13.50;94.70;;;;;;5092579;27;20422;-91
2022/12/31 12:40:38;;;;;;;12.02;1.67;;;13.40;94.60;;;;;;5093523;27;20925;-90
2022/12/31 12:43:05;;;;;;;14.88;2.00;;;13.50;94.70;;;;;;5092827;27;20398;-89
2022/12/31 12:45:43;;;;;;;16.15;2.20;;;13.40;94.60;;;;;;5109704;27;20901;-91
2022/12/31 12:48:18;;;;;;;12.73;1.52;;;13.30;94.50;;;;;;5110790;27;20407;-88
2022/12/31 12:50:46;;;;;;;15.43;2.33;;;13.40;94.40;;;;;;5108722;27;20429;-89
2022/12/31 12:53:35;;;;;;;14.85;2.00;;;13.40;94.40;;;;;;5093338;27;20403;-90
2022/12/31 12:56:29;;;;;;;11.07;1.42;;;13.30;94.50;;;;;;5108880;27;20430;-89
2022/12/31 12:59:27;;;;;;;12.23;1.90;;;13.40;94.20;;;;;;5091211;27;20406;-89
2022/12/31 13:02:01;;;;;;;12.60;2.42;;;13.40;94.10;;;;;;5091632;27;20419;-88
2022/12/31 13:04:43;;;;;;;15.63;2.08;;;13.40;94.10;;;;;;5109471;27;20391;-91
2022/12/31 13:07:18;;;;;;;11.52;1.55;;;13.40;93.90;;;;;;5108602;27;20414;-90
2022/12/31 13:10:12;;;;;;;15.10;2.10;;;13.40;93.80;;;;;;5092490;27;20435;-89
2022/12/31 13:12:49;;;;;;;12.48;2.00;;;13.40;93.90;;;;;;5108566;27;20462;-90
2022/12/31 13:15:27;;;;;;;10.85;1.70;;;13.40;93.60;;;;;;5092527;27;20412;-89
2022/12/31 13:18:01;;;;;;;12.15;1.80;;;13.40;93.50;;;;;;5092117;27;20410;-91
2022/12/31 13:20:49;;;;;;;12.98;1.98;;;13.40;93.60;;;;;;5108562;27;20434;-89
2022/12/31 13:23:29;;;;;;;15.38;2.03;;;13.30;93.50;;;;;;5092597;27;20411;-89
2022/12/31 13:26:19;;;;;;;11.38;2.10;;;13.30;93.70;;;;;;5107567;27;20411;-88